sensor_id;sensor_type;location;lat;lon;timestamp;P1;durP1;ratioP1;P2;durP2;ratioP2
24161;SDS011;12318;51.262;7.066;2023-07-30T00:00:58;8.80;;;3.80;;
24161;SDS011;12318;51.262;7.066;2023-07-30T00:03:24;10.50;;;4.82;;
24161;SDS011;12318;51.262;7.066;2023-07-30T00:05:53;11.13;;;5.35;;
24161;SDS011;12318;51.262;7.066;2023-07-30T00:08:20;11.27;;;5.45;;
24161;SDS011;12318;51.262;7.066;2023-07-30T00:10:46;12.98;;;5.15;;
24161;SDS011;12318;51.262;7.066;2023-07-30T00:13:12;11.00;;;4.82;;
24161;SDS011;12318;51.262;7.066;2023-07-30T00:15:38;11.07;;;4.70;;
24161;SDS011;12318;51.262;7.066;2023-07-30T00:18:05;9.20;;;3.70;;
24161;SDS011;12318;51.262;7.066;2023-07-30T00:20:31;11.15;;;4.70;;
24161;SDS011;12318;51.262;7.066;2023-07-30T00:22:57;17.13;;;4.57;;
24161;SDS011;12318;51.262;7.066;2023-07-30T00:25:23;8.15;;;3.47;;
24161;SDS011;12318;51.262;7.066;2023-07-30T00:27:49;11.85;;;5.07;;
24161;SDS011;12318;51.262;7.066;2023-07-30T00:30:15;8.85;;;5.22;;
24161;SDS011;12318;51.262;7.066;2023-07-30T00:32:41;11.95;;;4.95;;
24161;SDS011;12318;51.262;7.066;2023-07-30T00:35:09;13.88;;;5.30;;
24161;SDS011;12318;51.262;7.066;2023-07-30T00:37:35;13.70;;;5.53;;
24161;SDS011;12318;51.262;7.066;2023-07-30T00:40:02;13.50;;;4.60;;
24161;SDS011;12318;51.262;7.066;2023-07-30T00:42:28;13.52;;;4.60;;
24161;SDS011;12318;51.262;7.066;2023-07-30T00:44:54;13.32;;;3.97;;
24161;SDS011;12318;51.262;7.066;2023-07-30T00:47:21;10.20;;;3.72;;
24161;SDS011;12318;51.262;7.066;2023-07-30T00:49:48;12.20;;;3.83;;
24161;SDS011;12318;51.262;7.066;2023-07-30T00:52:16;9.15;;;3.20;;
24161;SDS011;12318;51.262;7.066;2023-07-30T00:54:42;12.25;;;3.83;;
24161;SDS011;12318;51.262;7.066;2023-07-30T00:57:08;13.48;;;3.50;;
24161;SDS011;12318;51.262;7.066;2023-07-30T00:59:35;11.88;;;4.00;;
24161;SDS011;12318;51.262;7.066;2023-07-30T01:02:04;10.93;;;4.00;;
24161;SDS011;12318;51.262;7.066;2023-07-30T01:04:30;9.90;;;4.40;;
24161;SDS011;12318;51.262;7.066;2023-07-30T01:06:56;13.65;;;4.53;;
24161;SDS011;12318;51.262;7.066;2023-07-30T01:09:22;13.38;;;4.47;;
24161;SDS011;12318;51.262;7.066;2023-07-30T01:11:49;13.27;;;4.78;;
24161;SDS011;12318;51.262;7.066;2023-07-30T01:14:15;10.35;;;4.40;;
24161;SDS011;12318;51.262;7.066;2023-07-30T01:16:43;8.85;;;4.15;;
24161;SDS011;12318;51.262;7.066;2023-07-30T01:19:09;11.57;;;4.07;;
24161;SDS011;12318;51.262;7.066;2023-07-30T01:21:36;15.00;;;4.40;;
24161;SDS011;12318;51.262;7.066;2023-07-30T01:24:02;10.38;;;4.28;;
24161;SDS011;12318;51.262;7.066;2023-07-30T01:29:45;10.02;;;3.35;;
24161;SDS011;12318;51.262;7.066;2023-07-30T01:32:16;10.48;;;3.33;;
24161;SDS011;12318;51.262;7.066;2023-07-30T01:34:43;13.10;;;3.55;;
24161;SDS011;12318;51.262;7.066;2023-07-30T01:37:12;9.10;;;3.33;;
24161;SDS011;12318;51.262;7.066;2023-07-30T01:39:39;14.32;;;4.25;;
24161;SDS011;12318;51.262;7.066;2023-07-30T01:42:06;9.63;;;3.28;;
24161;SDS011;12318;51.262;7.066;2023-07-30T01:44:32;13.00;;;3.53;;
24161;SDS011;12318;51.262;7.066;2023-07-30T01:46:59;8.73;;;3.17;;
24161;SDS011;12318;51.262;7.066;2023-07-30T01:49:25;7.53;;;3.08;;
24161;SDS011;12318;51.262;7.066;2023-07-30T01:51:51;14.75;;;3.55;;
24161;SDS011;12318;51.262;7.066;2023-07-30T01:54:17;9.77;;;3.05;;
24161;SDS011;12318;51.262;7.066;2023-07-30T01:56:43;11.50;;;3.42;;
24161;SDS011;12318;51.262;7.066;2023-07-30T01:59:09;11.68;;;3.33;;
24161;SDS011;12318;51.262;7.066;2023-07-30T02:01:35;9.85;;;3.22;;
24161;SDS011;12318;51.262;7.066;2023-07-30T02:04:01;10.55;;;3.55;;
24161;SDS011;12318;51.262;7.066;2023-07-30T02:06:27;13.77;;;3.38;;
24161;SDS011;12318;51.262;7.066;2023-07-30T02:08:53;12.15;;;4.55;;
24161;SDS011;12318;51.262;7.066;2023-07-30T02:11:19;8.27;;;3.67;;
24161;SDS011;12318;51.262;7.066;2023-07-30T02:13:45;10.77;;;3.72;;
24161;SDS011;12318;51.262;7.066;2023-07-30T02:16:11;10.48;;;3.53;;
24161;SDS011;12318;51.262;7.066;2023-07-30T02:18:38;12.18;;;3.35;;
24161;SDS011;12318;51.262;7.066;2023-07-30T02:21:04;14.15;;;3.42;;
24161;SDS011;12318;51.262;7.066;2023-07-30T02:23:30;14.32;;;3.30;;
24161;SDS011;12318;51.262;7.066;2023-07-30T02:25:56;10.85;;;3.15;;
24161;SDS011;12318;51.262;7.066;2023-07-30T02:28:22;12.48;;;3.78;;
24161;SDS011;12318;51.262;7.066;2023-07-30T02:30:48;7.05;;;3.17;;
24161;SDS011;12318;51.262;7.066;2023-07-30T02:33:14;10.93;;;3.30;;
24161;SDS011;12318;51.262;7.066;2023-07-30T02:35:42;10.63;;;3.67;;
24161;SDS011;12318;51.262;7.066;2023-07-30T02:38:08;9.57;;;3.45;;
24161;SDS011;12318;51.262;7.066;2023-07-30T02:40:34;10.70;;;3.40;;
24161;SDS011;12318;51.262;7.066;2023-07-30T02:43:01;10.02;;;3.75;;
24161;SDS011;12318;51.262;7.066;2023-07-30T02:45:27;14.98;;;4.68;;
24161;SDS011;12318;51.262;7.066;2023-07-30T02:47:53;14.77;;;4.20;;
24161;SDS011;12318;51.262;7.066;2023-07-30T02:50:19;15.23;;;4.00;;
24161;SDS011;12318;51.262;7.066;2023-07-30T02:52:45;14.05;;;4.32;;
24161;SDS011;12318;51.262;7.066;2023-07-30T02:55:11;15.63;;;3.90;;
24161;SDS011;12318;51.262;7.066;2023-07-30T02:57:38;14.52;;;3.83;;
24161;SDS011;12318;51.262;7.066;2023-07-30T03:00:04;22.35;;;4.63;;
24161;SDS011;12318;51.262;7.066;2023-07-30T03:02:30;12.95;;;3.88;;
24161;SDS011;12318;51.262;7.066;2023-07-30T03:04:56;13.63;;;3.40;;
24161;SDS011;12318;51.262;7.066;2023-07-30T03:07:22;9.93;;;3.38;;
24161;SDS011;12318;51.262;7.066;2023-07-30T03:09:48;11.55;;;3.33;;
24161;SDS011;12318;51.262;7.066;2023-07-30T03:12:14;9.30;;;3.20;;
24161;SDS011;12318;51.262;7.066;2023-07-30T03:14:40;17.30;;;3.55;;
24161;SDS011;12318;51.262;7.066;2023-07-30T03:17:07;11.00;;;3.47;;
24161;SDS011;12318;51.262;7.066;2023-07-30T03:19:33;9.95;;;3.50;;
24161;SDS011;12318;51.262;7.066;2023-07-30T03:21:59;10.20;;;2.80;;
24161;SDS011;12318;51.262;7.066;2023-07-30T03:24:25;10.38;;;3.17;;
24161;SDS011;12318;51.262;7.066;2023-07-30T03:26:51;13.20;;;3.28;;
24161;SDS011;12318;51.262;7.066;2023-07-30T03:29:17;9.30;;;3.20;;
24161;SDS011;12318;51.262;7.066;2023-07-30T03:31:43;11.75;;;3.75;;
24161;SDS011;12318;51.262;7.066;2023-07-30T03:34:09;11.73;;;3.40;;
24161;SDS011;12318;51.262;7.066;2023-07-30T03:36:35;9.80;;;3.33;;
24161;SDS011;12318;51.262;7.066;2023-07-30T03:39:01;14.85;;;3.10;;
24161;SDS011;12318;51.262;7.066;2023-07-30T03:41:27;13.95;;;3.63;;
24161;SDS011;12318;51.262;7.066;2023-07-30T03:43:53;13.68;;;3.60;;
24161;SDS011;12318;51.262;7.066;2023-07-30T03:46:19;14.77;;;4.25;;
24161;SDS011;12318;51.262;7.066;2023-07-30T03:48:46;16.70;;;4.80;;
24161;SDS011;12318;51.262;7.066;2023-07-30T03:51:12;13.88;;;4.32;;
24161;SDS011;12318;51.262;7.066;2023-07-30T03:53:38;15.18;;;3.75;;
24161;SDS011;12318;51.262;7.066;2023-07-30T03:56:04;12.75;;;3.90;;
24161;SDS011;12318;51.262;7.066;2023-07-30T03:58:30;19.02;;;3.80;;
24161;SDS011;12318;51.262;7.066;2023-07-30T04:00:56;12.07;;;3.35;;
24161;SDS011;12318;51.262;7.066;2023-07-30T04:03:22;14.45;;;3.20;;
24161;SDS011;12318;51.262;7.066;2023-07-30T04:05:48;16.35;;;3.42;;
24161;SDS011;12318;51.262;7.066;2023-07-30T04:08:15;11.88;;;3.50;;
24161;SDS011;12318;51.262;7.066;2023-07-30T04:10:41;13.23;;;3.10;;
24161;SDS011;12318;51.262;7.066;2023-07-30T04:13:07;10.77;;;3.65;;
24161;SDS011;12318;51.262;7.066;2023-07-30T04:15:34;19.23;;;4.40;;
24161;SDS011;12318;51.262;7.066;2023-07-30T04:18:00;13.32;;;3.75;;
24161;SDS011;12318;51.262;7.066;2023-07-30T04:20:26;13.73;;;3.70;;
24161;SDS011;12318;51.262;7.066;2023-07-30T04:22:52;15.40;;;3.78;;
24161;SDS011;12318;51.262;7.066;2023-07-30T04:25:18;14.25;;;3.92;;
24161;SDS011;12318;51.262;7.066;2023-07-30T04:27:45;17.50;;;3.85;;
24161;SDS011;12318;51.262;7.066;2023-07-30T04:30:11;11.50;;;3.67;;
24161;SDS011;12318;51.262;7.066;2023-07-30T04:32:37;11.65;;;3.28;;
24161;SDS011;12318;51.262;7.066;2023-07-30T04:35:03;18.38;;;4.25;;
24161;SDS011;12318;51.262;7.066;2023-07-30T04:37:29;15.68;;;3.75;;
24161;SDS011;12318;51.262;7.066;2023-07-30T04:39:56;19.48;;;4.18;;
24161;SDS011;12318;51.262;7.066;2023-07-30T04:42:22;11.38;;;2.92;;
24161;SDS011;12318;51.262;7.066;2023-07-30T04:44:48;14.88;;;3.53;;
24161;SDS011;12318;51.262;7.066;2023-07-30T04:47:14;13.45;;;3.30;;
24161;SDS011;12318;51.262;7.066;2023-07-30T04:49:41;14.82;;;3.53;;
24161;SDS011;12318;51.262;7.066;2023-07-30T04:52:07;16.08;;;2.92;;
24161;SDS011;12318;51.262;7.066;2023-07-30T04:54:33;20.23;;;3.78;;
24161;SDS011;12318;51.262;7.066;2023-07-30T04:57:01;14.65;;;3.22;;
24161;SDS011;12318;51.262;7.066;2023-07-30T04:59:28;14.52;;;3.33;;
24161;SDS011;12318;51.262;7.066;2023-07-30T05:01:54;12.07;;;3.15;;
24161;SDS011;12318;51.262;7.066;2023-07-30T05:04:20;12.25;;;3.75;;
24161;SDS011;12318;51.262;7.066;2023-07-30T05:06:46;13.70;;;3.30;;
24161;SDS011;12318;51.262;7.066;2023-07-30T05:09:12;20.63;;;4.90;;
24161;SDS011;12318;51.262;7.066;2023-07-30T05:11:38;13.80;;;3.95;;
24161;SDS011;12318;51.262;7.066;2023-07-30T05:14:04;14.30;;;3.78;;
24161;SDS011;12318;51.262;7.066;2023-07-30T05:16:30;11.77;;;3.30;;
24161;SDS011;12318;51.262;7.066;2023-07-30T05:18:56;16.33;;;3.75;;
24161;SDS011;12318;51.262;7.066;2023-07-30T05:21:22;14.05;;;3.40;;
24161;SDS011;12318;51.262;7.066;2023-07-30T05:23:49;15.13;;;3.45;;
24161;SDS011;12318;51.262;7.066;2023-07-30T05:26:15;14.70;;;3.58;;
24161;SDS011;12318;51.262;7.066;2023-07-30T05:28:41;16.60;;;3.58;;
24161;SDS011;12318;51.262;7.066;2023-07-30T05:31:07;14.52;;;4.03;;
24161;SDS011;12318;51.262;7.066;2023-07-30T05:33:33;14.18;;;3.70;;
24161;SDS011;12318;51.262;7.066;2023-07-30T05:35:59;19.20;;;3.80;;
24161;SDS011;12318;51.262;7.066;2023-07-30T05:38:25;15.88;;;4.00;;
24161;SDS011;12318;51.262;7.066;2023-07-30T05:40:51;16.38;;;3.70;;
24161;SDS011;12318;51.262;7.066;2023-07-30T05:43:17;14.02;;;3.53;;
24161;SDS011;12318;51.262;7.066;2023-07-30T05:45:43;19.08;;;3.72;;
24161;SDS011;12318;51.262;7.066;2023-07-30T05:48:10;16.05;;;3.50;;
24161;SDS011;12318;51.262;7.066;2023-07-30T05:50:36;15.40;;;3.25;;
24161;SDS011;12318;51.262;7.066;2023-07-30T05:53:02;15.25;;;3.20;;
24161;SDS011;12318;51.262;7.066;2023-07-30T05:55:28;17.73;;;3.67;;
24161;SDS011;12318;51.262;7.066;2023-07-30T05:57:55;12.73;;;2.92;;
24161;SDS011;12318;51.262;7.066;2023-07-30T06:00:21;15.55;;;3.33;;
24161;SDS011;12318;51.262;7.066;2023-07-30T06:02:47;13.02;;;2.95;;
24161;SDS011;12318;51.262;7.066;2023-07-30T06:05:13;13.80;;;3.47;;
24161;SDS011;12318;51.262;7.066;2023-07-30T06:07:39;22.15;;;3.65;;
24161;SDS011;12318;51.262;7.066;2023-07-30T06:10:05;16.45;;;3.97;;
24161;SDS011;12318;51.262;7.066;2023-07-30T06:12:31;15.70;;;3.72;;
24161;SDS011;12318;51.262;7.066;2023-07-30T06:14:57;16.33;;;3.80;;
24161;SDS011;12318;51.262;7.066;2023-07-30T06:17:24;19.17;;;4.15;;
24161;SDS011;12318;51.262;7.066;2023-07-30T06:19:50;14.40;;;4.32;;
24161;SDS011;12318;51.262;7.066;2023-07-30T06:22:16;19.33;;;3.50;;
24161;SDS011;12318;51.262;7.066;2023-07-30T06:24:42;11.52;;;3.65;;
24161;SDS011;12318;51.262;7.066;2023-07-30T06:27:08;15.20;;;4.25;;
24161;SDS011;12318;51.262;7.066;2023-07-30T06:29:35;21.67;;;3.60;;
24161;SDS011;12318;51.262;7.066;2023-07-30T06:32:01;18.63;;;4.28;;
24161;SDS011;12318;51.262;7.066;2023-07-30T06:34:27;13.98;;;3.40;;
24161;SDS011;12318;51.262;7.066;2023-07-30T06:36:54;16.15;;;3.22;;
24161;SDS011;12318;51.262;7.066;2023-07-30T06:39:20;12.05;;;2.90;;
24161;SDS011;12318;51.262;7.066;2023-07-30T06:41:46;13.13;;;2.95;;
24161;SDS011;12318;51.262;7.066;2023-07-30T06:44:12;12.73;;;2.95;;
24161;SDS011;12318;51.262;7.066;2023-07-30T06:46:39;14.13;;;2.53;;
24161;SDS011;12318;51.262;7.066;2023-07-30T06:49:05;15.23;;;2.92;;
24161;SDS011;12318;51.262;7.066;2023-07-30T06:51:31;18.88;;;2.90;;
24161;SDS011;12318;51.262;7.066;2023-07-30T06:53:57;13.23;;;2.72;;
24161;SDS011;12318;51.262;7.066;2023-07-30T06:56:23;26.13;;;3.03;;
24161;SDS011;12318;51.262;7.066;2023-07-30T06:58:49;18.77;;;2.80;;
24161;SDS011;12318;51.262;7.066;2023-07-30T07:01:15;20.35;;;3.40;;
24161;SDS011;12318;51.262;7.066;2023-07-30T07:03:41;12.93;;;3.00;;
24161;SDS011;12318;51.262;7.066;2023-07-30T07:06:07;12.75;;;2.58;;
24161;SDS011;12318;51.262;7.066;2023-07-30T07:08:33;12.95;;;2.83;;
24161;SDS011;12318;51.262;7.066;2023-07-30T07:11:00;15.77;;;3.20;;
24161;SDS011;12318;51.262;7.066;2023-07-30T07:13:26;11.60;;;2.80;;
24161;SDS011;12318;51.262;7.066;2023-07-30T07:15:52;10.50;;;2.60;;
24161;SDS011;12318;51.262;7.066;2023-07-30T07:18:18;13.05;;;3.40;;
24161;SDS011;12318;51.262;7.066;2023-07-30T07:20:44;12.95;;;2.78;;
24161;SDS011;12318;51.262;7.066;2023-07-30T07:23:10;16.90;;;3.45;;
24161;SDS011;12318;51.262;7.066;2023-07-30T07:25:36;16.35;;;3.17;;
24161;SDS011;12318;51.262;7.066;2023-07-30T07:28:03;15.20;;;3.17;;
24161;SDS011;12318;51.262;7.066;2023-07-30T07:30:29;13.73;;;2.90;;
24161;SDS011;12318;51.262;7.066;2023-07-30T07:32:55;12.77;;;2.83;;
24161;SDS011;12318;51.262;7.066;2023-07-30T07:35:21;13.30;;;3.00;;
24161;SDS011;12318;51.262;7.066;2023-07-30T07:37:48;14.55;;;2.75;;
24161;SDS011;12318;51.262;7.066;2023-07-30T07:40:14;19.60;;;4.03;;
24161;SDS011;12318;51.262;7.066;2023-07-30T07:42:42;16.67;;;3.60;;
24161;SDS011;12318;51.262;7.066;2023-07-30T07:45:08;21.50;;;3.75;;
24161;SDS011;12318;51.262;7.066;2023-07-30T07:47:35;20.23;;;3.40;;
24161;SDS011;12318;51.262;7.066;2023-07-30T07:50:01;13.38;;;2.85;;
24161;SDS011;12318;51.262;7.066;2023-07-30T07:52:27;16.45;;;3.33;;
24161;SDS011;12318;51.262;7.066;2023-07-30T07:54:53;12.10;;;3.03;;
24161;SDS011;12318;51.262;7.066;2023-07-30T07:57:19;16.58;;;3.58;;
24161;SDS011;12318;51.262;7.066;2023-07-30T07:59:45;12.88;;;3.03;;
24161;SDS011;12318;51.262;7.066;2023-07-30T08:02:12;16.80;;;3.67;;
24161;SDS011;12318;51.262;7.066;2023-07-30T08:04:38;21.45;;;3.47;;
24161;SDS011;12318;51.262;7.066;2023-07-30T08:07:04;16.75;;;2.97;;
24161;SDS011;12318;51.262;7.066;2023-07-30T08:09:31;14.45;;;3.33;;
24161;SDS011;12318;51.262;7.066;2023-07-30T08:11:57;14.82;;;3.03;;
24161;SDS011;12318;51.262;7.066;2023-07-30T08:14:23;15.63;;;3.45;;
24161;SDS011;12318;51.262;7.066;2023-07-30T08:16:49;15.82;;;3.30;;
24161;SDS011;12318;51.262;7.066;2023-07-30T08:19:15;16.17;;;3.35;;
24161;SDS011;12318;51.262;7.066;2023-07-30T08:21:41;17.02;;;3.50;;
24161;SDS011;12318;51.262;7.066;2023-07-30T08:24:07;10.63;;;3.10;;
24161;SDS011;12318;51.262;7.066;2023-07-30T08:26:33;17.45;;;3.20;;
24161;SDS011;12318;51.262;7.066;2023-07-30T08:28:59;12.43;;;2.95;;
24161;SDS011;12318;51.262;7.066;2023-07-30T08:31:25;15.93;;;3.08;;
24161;SDS011;12318;51.262;7.066;2023-07-30T08:33:51;16.55;;;3.08;;
24161;SDS011;12318;51.262;7.066;2023-07-30T08:36:18;17.58;;;3.45;;
24161;SDS011;12318;51.262;7.066;2023-07-30T08:38:44;22.55;;;3.78;;
24161;SDS011;12318;51.262;7.066;2023-07-30T08:41:10;15.50;;;3.30;;
24161;SDS011;12318;51.262;7.066;2023-07-30T08:43:36;18.52;;;2.95;;
24161;SDS011;12318;51.262;7.066;2023-07-30T08:46:02;16.60;;;3.10;;
24161;SDS011;12318;51.262;7.066;2023-07-30T08:48:29;17.88;;;3.30;;
24161;SDS011;12318;51.262;7.066;2023-07-30T08:50:58;14.80;;;3.13;;
24161;SDS011;12318;51.262;7.066;2023-07-30T08:53:25;13.88;;;2.90;;
24161;SDS011;12318;51.262;7.066;2023-07-30T08:55:52;12.13;;;2.80;;
24161;SDS011;12318;51.262;7.066;2023-07-30T08:58:19;15.75;;;3.17;;
24161;SDS011;12318;51.262;7.066;2023-07-30T09:00:45;20.65;;;3.00;;
24161;SDS011;12318;51.262;7.066;2023-07-30T09:03:11;18.23;;;3.70;;
24161;SDS011;12318;51.262;7.066;2023-07-30T09:05:40;16.73;;;2.95;;
24161;SDS011;12318;51.262;7.066;2023-07-30T09:08:07;17.67;;;3.20;;
24161;SDS011;12318;51.262;7.066;2023-07-30T09:10:34;12.90;;;3.05;;
24161;SDS011;12318;51.262;7.066;2023-07-30T09:13:01;11.40;;;2.95;;
24161;SDS011;12318;51.262;7.066;2023-07-30T09:15:35;16.02;;;2.80;;
24161;SDS011;12318;51.262;7.066;2023-07-30T09:18:04;10.73;;;3.03;;
24161;SDS011;12318;51.262;7.066;2023-07-30T09:20:37;14.07;;;3.00;;
24161;SDS011;12318;51.262;7.066;2023-07-30T09:23:04;16.27;;;2.95;;
24161;SDS011;12318;51.262;7.066;2023-07-30T09:25:32;17.45;;;3.40;;
24161;SDS011;12318;51.262;7.066;2023-07-30T09:27:58;12.57;;;2.53;;
24161;SDS011;12318;51.262;7.066;2023-07-30T09:30:25;17.40;;;2.80;;
24161;SDS011;12318;51.262;7.066;2023-07-30T09:32:56;14.90;;;3.60;;
24161;SDS011;12318;51.262;7.066;2023-07-30T09:35:22;17.38;;;3.15;;
24161;SDS011;12318;51.262;7.066;2023-07-30T09:37:58;15.02;;;3.42;;
24161;SDS011;12318;51.262;7.066;2023-07-30T09:40:36;15.95;;;2.85;;
24161;SDS011;12318;51.262;7.066;2023-07-30T09:43:04;17.25;;;3.08;;
24161;SDS011;12318;51.262;7.066;2023-07-30T09:45:32;12.43;;;2.60;;
24161;SDS011;12318;51.262;7.066;2023-07-30T09:48:00;15.32;;;3.00;;
24161;SDS011;12318;51.262;7.066;2023-07-30T09:50:28;12.80;;;3.10;;
24161;SDS011;12318;51.262;7.066;2023-07-30T09:52:54;17.20;;;3.22;;
24161;SDS011;12318;51.262;7.066;2023-07-30T09:55:20;14.10;;;2.50;;
24161;SDS011;12318;51.262;7.066;2023-07-30T09:57:46;12.32;;;2.45;;
24161;SDS011;12318;51.262;7.066;2023-07-30T10:00:12;11.77;;;2.60;;
24161;SDS011;12318;51.262;7.066;2023-07-30T10:02:39;12.57;;;2.35;;
24161;SDS011;12318;51.262;7.066;2023-07-30T10:05:18;15.35;;;2.25;;
24161;SDS011;12318;51.262;7.066;2023-07-30T10:10:14;16.70;;;2.80;;
24161;SDS011;12318;51.262;7.066;2023-07-30T10:12:40;11.18;;;2.45;;
24161;SDS011;12318;51.262;7.066;2023-07-30T10:15:07;12.88;;;2.60;;
24161;SDS011;12318;51.262;7.066;2023-07-30T10:17:34;11.85;;;2.55;;
24161;SDS011;12318;51.262;7.066;2023-07-30T10:22:45;12.07;;;2.10;;
24161;SDS011;12318;51.262;7.066;2023-07-30T10:25:12;12.77;;;2.53;;
24161;SDS011;12318;51.262;7.066;2023-07-30T10:27:39;10.52;;;2.40;;
24161;SDS011;12318;51.262;7.066;2023-07-30T10:32:37;13.73;;;2.33;;
24161;SDS011;12318;51.262;7.066;2023-07-30T10:35:04;12.48;;;2.45;;
24161;SDS011;12318;51.262;7.066;2023-07-30T10:37:31;12.98;;;2.60;;
24161;SDS011;12318;51.262;7.066;2023-07-30T10:39:57;9.70;;;2.05;;
24161;SDS011;12318;51.262;7.066;2023-07-30T10:42:23;11.15;;;2.40;;
24161;SDS011;12318;51.262;7.066;2023-07-30T10:44:49;17.00;;;2.05;;
24161;SDS011;12318;51.262;7.066;2023-07-30T10:47:16;8.93;;;2.20;;
24161;SDS011;12318;51.262;7.066;2023-07-30T10:49:42;9.35;;;1.95;;
24161;SDS011;12318;51.262;7.066;2023-07-30T10:52:09;8.85;;;2.00;;
24161;SDS011;12318;51.262;7.066;2023-07-30T10:54:35;8.40;;;2.22;;
24161;SDS011;12318;51.262;7.066;2023-07-30T10:57:05;8.93;;;1.98;;
24161;SDS011;12318;51.262;7.066;2023-07-30T10:59:35;8.77;;;2.00;;
24161;SDS011;12318;51.262;7.066;2023-07-30T11:02:04;11.57;;;2.08;;
24161;SDS011;12318;51.262;7.066;2023-07-30T11:04:33;10.02;;;2.08;;
24161;SDS011;12318;51.262;7.066;2023-07-30T11:07:00;10.77;;;1.80;;
24161;SDS011;12318;51.262;7.066;2023-07-30T11:09:26;11.60;;;1.80;;
24161;SDS011;12318;51.262;7.066;2023-07-30T11:11:53;6.68;;;1.50;;
24161;SDS011;12318;51.262;7.066;2023-07-30T11:14:21;13.23;;;2.42;;
24161;SDS011;12318;51.262;7.066;2023-07-30T11:16:48;9.85;;;1.90;;
24161;SDS011;12318;51.262;7.066;2023-07-30T11:19:15;10.25;;;1.92;;
24161;SDS011;12318;51.262;7.066;2023-07-30T11:21:44;11.10;;;2.22;;
24161;SDS011;12318;51.262;7.066;2023-07-30T11:24:11;17.30;;;2.80;;
24161;SDS011;12318;51.262;7.066;2023-07-30T11:26:37;10.98;;;2.33;;
24161;SDS011;12318;51.262;7.066;2023-07-30T11:29:18;9.32;;;1.95;;
24161;SDS011;12318;51.262;7.066;2023-07-30T11:31:46;12.52;;;2.20;;
24161;SDS011;12318;51.262;7.066;2023-07-30T11:34:13;9.55;;;2.17;;
24161;SDS011;12318;51.262;7.066;2023-07-30T11:36:40;8.63;;;1.75;;
24161;SDS011;12318;51.262;7.066;2023-07-30T11:39:06;6.68;;;1.80;;
24161;SDS011;12318;51.262;7.066;2023-07-30T11:41:32;7.38;;;1.65;;
24161;SDS011;12318;51.262;7.066;2023-07-30T11:43:59;12.07;;;1.70;;
24161;SDS011;12318;51.262;7.066;2023-07-30T11:46:25;7.25;;;1.20;;
24161;SDS011;12318;51.262;7.066;2023-07-30T11:48:53;10.23;;;1.98;;
24161;SDS011;12318;51.262;7.066;2023-07-30T11:51:26;8.70;;;1.45;;
24161;SDS011;12318;51.262;7.066;2023-07-30T11:53:53;10.05;;;1.58;;
24161;SDS011;12318;51.262;7.066;2023-07-30T11:56:21;10.07;;;1.90;;
24161;SDS011;12318;51.262;7.066;2023-07-30T11:58:48;7.72;;;1.50;;
24161;SDS011;12318;51.262;7.066;2023-07-30T12:01:15;7.15;;;1.40;;
24161;SDS011;12318;51.262;7.066;2023-07-30T12:03:41;9.32;;;1.60;;
24161;SDS011;12318;51.262;7.066;2023-07-30T12:06:09;7.57;;;1.42;;
24161;SDS011;12318;51.262;7.066;2023-07-30T12:08:36;7.50;;;1.30;;
24161;SDS011;12318;51.262;7.066;2023-07-30T12:11:02;10.23;;;1.75;;
24161;SDS011;12318;51.262;7.066;2023-07-30T12:13:29;8.35;;;1.58;;
24161;SDS011;12318;51.262;7.066;2023-07-30T12:15:56;9.32;;;1.58;;
24161;SDS011;12318;51.262;7.066;2023-07-30T12:18:23;5.22;;;1.15;;
24161;SDS011;12318;51.262;7.066;2023-07-30T12:20:49;10.15;;;1.70;;
24161;SDS011;12318;51.262;7.066;2023-07-30T12:23:16;9.70;;;1.60;;
24161;SDS011;12318;51.262;7.066;2023-07-30T12:25:42;9.63;;;1.85;;
24161;SDS011;12318;51.262;7.066;2023-07-30T12:28:09;5.97;;;1.60;;
24161;SDS011;12318;51.262;7.066;2023-07-30T12:30:35;5.05;;;1.33;;
24161;SDS011;12318;51.262;7.066;2023-07-30T12:33:05;5.65;;;1.80;;
24161;SDS011;12318;51.262;7.066;2023-07-30T12:35:32;6.00;;;1.30;;
24161;SDS011;12318;51.262;7.066;2023-07-30T12:37:58;5.32;;;1.02;;
24161;SDS011;12318;51.262;7.066;2023-07-30T12:40:24;6.40;;;0.98;;
24161;SDS011;12318;51.262;7.066;2023-07-30T12:42:51;3.17;;;0.95;;
24161;SDS011;12318;51.262;7.066;2023-07-30T12:45:17;5.97;;;1.05;;
24161;SDS011;12318;51.262;7.066;2023-07-30T12:47:44;4.78;;;1.20;;
24161;SDS011;12318;51.262;7.066;2023-07-30T12:50:10;6.60;;;1.15;;
24161;SDS011;12318;51.262;7.066;2023-07-30T12:52:36;10.48;;;1.58;;
24161;SDS011;12318;51.262;7.066;2023-07-30T12:55:03;5.45;;;1.05;;
24161;SDS011;12318;51.262;7.066;2023-07-30T12:57:29;2.97;;;1.00;;
24161;SDS011;12318;51.262;7.066;2023-07-30T12:59:56;7.53;;;1.23;;
24161;SDS011;12318;51.262;7.066;2023-07-30T13:02:22;7.72;;;1.50;;
24161;SDS011;12318;51.262;7.066;2023-07-30T13:04:48;7.57;;;1.65;;
24161;SDS011;12318;51.262;7.066;2023-07-30T13:07:14;6.35;;;1.30;;
24161;SDS011;12318;51.262;7.066;2023-07-30T13:09:40;9.43;;;1.70;;
24161;SDS011;12318;51.262;7.066;2023-07-30T13:12:07;5.55;;;1.30;;
24161;SDS011;12318;51.262;7.066;2023-07-30T13:14:33;5.20;;;1.35;;
24161;SDS011;12318;51.262;7.066;2023-07-30T13:16:59;5.38;;;1.45;;
24161;SDS011;12318;51.262;7.066;2023-07-30T13:19:25;6.05;;;1.30;;
24161;SDS011;12318;51.262;7.066;2023-07-30T13:21:53;9.15;;;1.38;;
24161;SDS011;12318;51.262;7.066;2023-07-30T13:24:19;6.55;;;1.30;;
24161;SDS011;12318;51.262;7.066;2023-07-30T13:26:45;4.68;;;1.17;;
24161;SDS011;12318;51.262;7.066;2023-07-30T13:29:11;4.78;;;1.30;;
24161;SDS011;12318;51.262;7.066;2023-07-30T13:31:37;9.10;;;1.45;;
24161;SDS011;12318;51.262;7.066;2023-07-30T13:34:03;8.07;;;1.83;;
24161;SDS011;12318;51.262;7.066;2023-07-30T13:36:29;5.50;;;1.23;;
24161;SDS011;12318;51.262;7.066;2023-07-30T13:38:55;6.90;;;1.35;;
24161;SDS011;12318;51.262;7.066;2023-07-30T13:41:21;9.25;;;1.65;;
24161;SDS011;12318;51.262;7.066;2023-07-30T13:43:47;5.82;;;1.40;;
24161;SDS011;12318;51.262;7.066;2023-07-30T13:46:13;6.18;;;1.60;;
24161;SDS011;12318;51.262;7.066;2023-07-30T13:48:39;9.38;;;1.65;;
24161;SDS011;12318;51.262;7.066;2023-07-30T13:51:05;6.70;;;1.48;;
24161;SDS011;12318;51.262;7.066;2023-07-30T13:53:31;5.88;;;1.55;;
24161;SDS011;12318;51.262;7.066;2023-07-30T13:55:59;8.98;;;1.60;;
24161;SDS011;12318;51.262;7.066;2023-07-30T13:58:26;5.10;;;1.33;;
24161;SDS011;12318;51.262;7.066;2023-07-30T14:00:53;6.45;;;1.42;;
24161;SDS011;12318;51.262;7.066;2023-07-30T14:03:20;3.92;;;1.23;;
24161;SDS011;12318;51.262;7.066;2023-07-30T14:05:46;5.07;;;1.30;;
24161;SDS011;12318;51.262;7.066;2023-07-30T14:08:12;10.75;;;1.80;;
24161;SDS011;12318;51.262;7.066;2023-07-30T14:10:38;4.85;;;1.42;;
24161;SDS011;12318;51.262;7.066;2023-07-30T14:13:04;9.68;;;1.60;;
24161;SDS011;12318;51.262;7.066;2023-07-30T14:15:31;4.68;;;1.45;;
24161;SDS011;12318;51.262;7.066;2023-07-30T14:17:57;7.68;;;1.75;;
24161;SDS011;12318;51.262;7.066;2023-07-30T14:20:24;4.63;;;1.35;;
24161;SDS011;12318;51.262;7.066;2023-07-30T14:22:50;5.05;;;1.05;;
24161;SDS011;12318;51.262;7.066;2023-07-30T14:25:16;7.00;;;1.90;;
24161;SDS011;12318;51.262;7.066;2023-07-30T14:27:42;6.88;;;1.40;;
24161;SDS011;12318;51.262;7.066;2023-07-30T14:30:08;5.85;;;1.58;;
24161;SDS011;12318;51.262;7.066;2023-07-30T14:32:35;6.05;;;1.50;;
24161;SDS011;12318;51.262;7.066;2023-07-30T14:35:01;9.82;;;1.52;;
24161;SDS011;12318;51.262;7.066;2023-07-30T14:37:27;6.82;;;1.58;;
24161;SDS011;12318;51.262;7.066;2023-07-30T14:39:53;7.68;;;1.63;;
24161;SDS011;12318;51.262;7.066;2023-07-30T14:42:19;6.18;;;1.58;;
24161;SDS011;12318;51.262;7.066;2023-07-30T14:44:45;6.88;;;1.30;;